Time;durP1;ratioP1;P1;durP2;ratioP2;P2;SDS_P1;SDS_P2;PMS_P1;PMS_P2;Temp;Humidity;BMP_temperature;BMP_pressure;BME280_temperature;BME280_humidity;BME280_pressure;Samples;Min_cycle;Max_cycle;Signal;HPM_P1;HPM_P2
2024/02/26 00:01:38;;;;;;;;;;;15.50;66.00;;;;;;5032343;28;19921;-71
2024/02/26 00:04:03;;;;;;;;;;;15.50;65.60;;;;;;5032381;28;20004;-71
2024/02/26 00:06:29;;;;;;;;;;;15.50;65.80;;;;;;5032384;28;19910;-71
2024/02/26 00:08:55;;;;;;;;;;;15.50;66.20;;;;;;5032211;28;19909;-71
2024/02/26 00:11:20;;;;;;;;;;;15.40;65.80;;;;;;5032307;28;19909;-71
2024/02/26 00:13:46;;;;;;;;;;;15.50;66.10;;;;;;5032571;28;19956;-71
2024/02/26 00:16:11;;;;;;;;;;;15.50;66.00;;;;;;5032214;28;19909;-71
2024/02/26 00:18:37;;;;;;;;;;;15.50;66.00;;;;;;5034072;28;19963;-71
2024/02/26 00:21:02;;;;;;;;;;;15.40;66.20;;;;;;5036663;28;19928;-71
2024/02/26 00:23:28;;;;;;;;;;;15.40;65.70;;;;;;5036435;28;19909;-71
2024/02/26 00:25:53;;;;;;;;;;;15.50;66.10;;;;;;5036181;28;19916;-71
2024/02/26 00:28:22;;;;;;;;;;;15.50;66.30;;;;;;5036032;28;19916;-71
2024/02/26 00:30:48;;;;;;;;;;;15.50;63.20;;;;;;5036020;28;19910;-71
2024/02/26 00:33:16;;;;;;;;;;;15.40;65.80;;;;;;5036123;28;19999;-74
2024/02/26 00:35:42;;;;;;;;;;;15.40;61.30;;;;;;5035954;28;20011;-71
2024/02/26 00:38:07;;;;;;;;;;;15.50;65.90;;;;;;5035948;28;19917;-71
2024/02/26 00:40:34;;;;;;;;;;;15.50;66.00;;;;;;5035784;28;20370;-71
2024/02/26 00:42:59;;;;;;;;;;;15.40;65.80;;;;;;5035860;28;20327;-71
2024/02/26 00:45:25;;;;;;;;;;;15.50;66.00;;;;;;5036032;28;19949;-71
2024/02/26 00:47:50;;;;;;;;;;;15.40;65.80;;;;;;5035839;28;19964;-71
2024/02/26 00:50:16;;;;;;;;;;;15.40;65.80;;;;;;5036175;28;19956;-71
2024/02/26 00:52:42;;;;;;;;;;;15.40;65.60;;;;;;5035719;28;19917;-71
2024/02/26 00:55:07;;;;;;;;;;;15.40;65.90;;;;;;5035657;28;20298;-71
2024/02/26 00:57:33;;;;;;;;;;;15.50;65.30;;;;;;5035538;28;20375;-71
2024/02/26 00:59:59;;;;;;;;;;;15.40;65.80;;;;;;5035081;28;19913;-71
2024/02/26 01:02:24;;;;;;;;;;;15.40;65.80;;;;;;5035672;28;19939;-71
2024/02/26 01:04:50;;;;;;;;;;;15.50;65.50;;;;;;5035312;28;20407;-71
2024/02/26 01:07:16;;;;;;;;;;;15.40;65.80;;;;;;5035288;28;19909;-71
2024/02/26 01:09:42;;;;;;;;;;;15.30;66.20;;;;;;5035150;28;19956;-71
2024/02/26 01:12:08;;;;;;;;;;;15.40;66.10;;;;;;5035343;28;19991;-71
2024/02/26 01:14:34;;;;;;;;;;;15.80;66.10;;;;;;5035449;28;19974;-71
2024/02/26 01:16:59;;;;;;;;;;;15.40;66.10;;;;;;5035226;28;20287;-71
2024/02/26 01:19:25;;;;;;;;;;;15.40;66.40;;;;;;5035670;28;19909;-71
2024/02/26 01:21:50;;;;;;;;;;;15.30;66.20;;;;;;5035013;28;19918;-71
2024/02/26 01:24:16;;;;;;;;;;;15.40;66.20;;;;;;5035122;28;19974;-71
2024/02/26 01:26:42;;;;;;;;;;;15.40;66.10;;;;;;5034967;28;19910;-71
2024/02/26 01:29:07;;;;;;;;;;;15.20;66.10;;;;;;5034726;28;20003;-71
2024/02/26 01:31:33;;;;;;;;;;;15.40;66.20;;;;;;5034360;28;19932;-71
2024/02/26 01:33:58;;;;;;;;;;;15.40;66.20;;;;;;5035160;28;19909;-71
2024/02/26 01:36:24;;;;;;;;;;;15.40;66.50;;;;;;5035017;28;20270;-71
2024/02/26 01:38:49;;;;;;;;;;;15.40;66.30;;;;;;5017100;28;19910;-71
2024/02/26 01:41:15;;;;;;;;;;;15.40;66.20;;;;;;5034645;28;20394;-71
2024/02/26 01:43:40;;;;;;;;;;;15.40;66.00;;;;;;5034658;28;20008;-71
2024/02/26 01:46:07;;;;;;;;;;;15.40;66.10;;;;;;5035115;28;20334;-71
2024/02/26 01:48:33;;;;;;;;;;;15.30;66.30;;;;;;5034556;28;19914;-71
2024/02/26 01:50:58;;;;;;;;;;;15.30;66.10;;;;;;5034543;28;19909;-71
2024/02/26 01:53:24;;;;;;;;;;;15.30;66.00;;;;;;5034807;28;19909;-71
2024/02/26 01:55:50;;;;;;;;;;;15.30;66.20;;;;;;5034678;28;19916;-71
2024/02/26 01:58:16;;;;;;;;;;;15.30;66.10;;;;;;5034524;28;19909;-71
2024/02/26 02:00:43;;;;;;;;;;;15.20;65.80;;;;;;5034537;28;20070;-71
2024/02/26 02:03:09;;;;;;;;;;;15.30;66.50;;;;;;5034668;28;20272;-71
2024/02/26 02:05:41;;;;;;;;;;;15.30;65.70;;;;;;5034490;28;20004;-71
2024/02/26 02:08:08;;;;;;;;;;;15.30;66.60;;;;;;5034582;28;19909;-71
2024/02/26 02:10:34;;;;;;;;;;;15.30;66.40;;;;;;5034023;28;20328;-71
2024/02/26 02:12:59;;;;;;;;;;;15.20;66.40;;;;;;5034226;28;19963;-71
2024/02/26 02:15:25;;;;;;;;;;;15.30;66.10;;;;;;5034813;28;19909;-71
2024/02/26 02:17:50;;;;;;;;;;;15.60;66.30;;;;;;5034044;28;19996;-71
2024/02/26 02:20:17;;;;;;;;;;;15.30;66.40;;;;;;5033986;28;19913;-71
2024/02/26 02:22:43;;;;;;;;;;;15.30;66.30;;;;;;5033977;28;19948;-71
2024/02/26 02:25:08;;;;;;;;;;;15.20;65.90;;;;;;5034000;28;19910;-71
2024/02/26 02:27:34;;;;;;;;;;;15.30;66.10;;;;;;5033977;28;20000;-71
2024/02/26 02:30:00;;;;;;;;;;;14.50;65.80;;;;;;5033804;28;19909;-71
2024/02/26 02:32:25;;;;;;;;;;;15.30;66.20;;;;;;5033798;28;19910;-71
2024/02/26 02:34:51;;;;;;;;;;;15.20;66.00;;;;;;5033998;28;20050;-71
2024/02/26 02:37:16;;;;;;;;;;;15.20;66.00;;;;;;5033779;28;20440;-71
2024/02/26 02:39:43;;;;;;;;;;;15.20;66.20;;;;;;5033698;28;20405;-71
2024/02/26 02:42:08;;;;;;;;;;;15.20;66.20;;;;;;5033423;28;20295;-71
2024/02/26 02:44:34;;;;;;;;;;;15.20;65.60;;;;;;5034317;28;19920;-71
2024/02/26 02:46:59;;;;;;;;;;;15.20;66.40;;;;;;5033520;28;20387;-71
2024/02/26 02:49:25;;;;;;;;;;;15.20;66.30;;;;;;5033532;28;20338;-71
2024/02/26 02:51:50;;;;;;;;;;;15.20;66.10;;;;;;5033443;28;19909;-71
2024/02/26 02:54:16;;;;;;;;;;;15.20;66.00;;;;;;5033459;28;20413;-71
2024/02/26 02:56:41;;;;;;;;;;;15.20;66.20;;;;;;5033272;28;19916;-71
2024/02/26 02:59:07;;;;;;;;;;;15.20;66.00;;;;;;5033218;28;20375;-71
2024/02/26 03:01:32;;;;;;;;;;;15.20;66.10;;;;;;5033184;28;19967;-71
2024/02/26 03:03:58;;;;;;;;;;;15.20;65.60;;;;;;5033109;28;19948;-71
2024/02/26 03:06:26;;;;;;;;;;;15.20;66.10;;;;;;5033435;28;19916;-71
2024/02/26 03:08:52;;;;;;;;;;;15.20;66.00;;;;;;5033217;28;19909;-72
2024/02/26 03:11:17;;;;;;;;;;;15.10;66.00;;;;;;5033577;28;19958;-71
2024/02/26 03:13:43;;;;;;;;;;;15.20;66.00;;;;;;5033309;28;20007;-71
2024/02/26 03:16:09;;;;;;;;;;;15.10;65.80;;;;;;5032903;28;19968;-71
2024/02/26 03:18:35;;;;;;;;;;;15.10;65.70;;;;;;5033210;28;19917;-71
2024/02/26 03:21:01;;;;;;;;;;;15.10;66.10;;;;;;5033107;28;20272;-71
2024/02/26 03:23:27;;;;;;;;;;;15.20;65.90;;;;;;5033254;28;19920;-71
2024/02/26 03:25:53;;;;;;;;;;;15.10;65.90;;;;;;5032797;28;19920;-71
2024/02/26 03:28:19;;;;;;;;;;;15.10;65.90;;;;;;5033095;28;19909;-71
2024/02/26 03:30:45;;;;;;;;;;;15.10;66.20;;;;;;5033003;28;19916;-71
2024/02/26 03:33:10;;;;;;;;;;;15.10;66.10;;;;;;5032713;28;19909;-71
2024/02/26 03:35:36;;;;;;;;;;;15.10;65.80;;;;;;5032964;28;19909;-71
2024/02/26 03:38:02;;;;;;;;;;;15.10;65.70;;;;;;5032915;28;19913;-71
2024/02/26 03:40:28;;;;;;;;;;;15.20;65.70;;;;;;5033310;28;19956;-74
2024/02/26 03:42:54;;;;;;;;;;;15.10;66.00;;;;;;5032574;28;19909;-74
2024/02/26 03:45:19;;;;;;;;;;;15.10;66.60;;;;;;5032541;28;19913;-74
2024/02/26 03:47:45;;;;;;;;;;;15.10;65.90;;;;;;5032582;28;20291;-74
2024/02/26 03:50:10;;;;;;;;;;;15.10;65.90;;;;;;5032440;28;19909;-75
2024/02/26 03:52:36;;;;;;;;;;;15.00;65.60;;;;;;5032173;28;19910;-74
2024/02/26 03:55:01;;;;;;;;;;;15.20;65.90;;;;;;5032503;28;19909;-71
2024/02/26 03:57:27;;;;;;;;;;;15.10;65.80;;;;;;5032346;28;19952;-71
2024/02/26 03:59:53;;;;;;;;;;;15.00;65.70;;;;;;5032417;28;20009;-71
2024/02/26 04:02:19;;;;;;;;;;;15.10;65.80;;;;;;5014995;28;19925;-71
2024/02/26 04:04:45;;;;;;;;;;;15.10;65.40;;;;;;5032235;28;19910;-71
2024/02/26 04:07:13;;;;;;;;;;;15.00;66.00;;;;;;5032643;28;19910;-71
2024/02/26 04:09:39;;;;;;;;;;;15.00;65.70;;;;;;5032836;28;19921;-71
2024/02/26 04:12:05;;;;;;;;;;;15.00;65.70;;;;;;5032533;28;20264;-71
2024/02/26 04:14:31;;;;;;;;;;;15.10;65.00;;;;;;5032541;28;19949;-71
2024/02/26 04:16:57;;;;;;;;;;;15.00;65.80;;;;;;5032508;28;19916;-71
2024/02/26 04:19:22;;;;;;;;;;;15.00;65.70;;;;;;5032245;28;20291;-71
2024/02/26 04:21:48;;;;;;;;;;;15.00;65.40;;;;;;5032507;28;19917;-71
2024/02/26 04:24:14;;;;;;;;;;;15.00;65.70;;;;;;5032167;28;19909;-71
2024/02/26 04:26:40;;;;;;;;;;;14.90;65.60;;;;;;5032506;28;19910;-71
2024/02/26 04:29:07;;;;;;;;;;;15.00;65.50;;;;;;5032340;28;19909;-71
2024/02/26 04:31:33;;;;;;;;;;;15.00;65.30;;;;;;5032404;28;19920;-71
2024/02/26 04:33:58;;;;;;;;;;;15.00;65.60;;;;;;5032410;28;19909;-71
2024/02/26 04:36:25;;;;;;;;;;;15.00;65.80;;;;;;5031988;28;19916;-71
2024/02/26 04:38:54;;;;;;;;;;;14.90;65.50;;;;;;5032875;28;19956;-71
2024/02/26 04:41:20;;;;;;;;;;;14.90;65.60;;;;;;5032208;28;19924;-71
2024/02/26 04:43:46;;;;;;;;;;;15.20;65.80;;;;;;5032322;28;19909;-71
2024/02/26 04:46:12;;;;;;;;;;;15.00;65.50;;;;;;5031936;28;20342;-71
2024/02/26 04:48:38;;;;;;;;;;;14.90;65.50;;;;;;5032428;28;19913;-71
2024/02/26 04:51:04;;;;;;;;;;;15.00;65.10;;;;;;5032303;28;19955;-71
2024/02/26 04:53:31;;;;;;;;;;;14.90;65.80;;;;;;5032210;28;19933;-71
2024/02/26 04:55:57;;;;;;;;;;;15.00;65.90;;;;;;5032230;28;20297;-71
2024/02/26 04:58:23;;;;;;;;;;;15.00;65.60;;;;;;5031798;28;19947;-71
2024/02/26 05:06:33;;;;;;;;;;;15.00;60.40;;;;;;5051796;28;19944;-71
2024/02/26 05:08:59;;;;;;;;;;;15.20;65.70;;;;;;5055149;28;20378;-71
2024/02/26 05:11:24;;;;;;;;;;;15.00;65.50;;;;;;5055245;28;19913;-71
2024/02/26 05:13:50;;;;;;;;;;;14.90;65.40;;;;;;5055221;28;19915;-71
2024/02/26 05:16:15;;;;;;;;;;;14.90;65.30;;;;;;5055208;28;19964;-71
2024/02/26 05:18:41;;;;;;;;;;;14.70;65.30;;;;;;5055107;28;19909;-71
2024/02/26 05:21:06;;;;;;;;;;;14.90;65.00;;;;;;5037259;28;19917;-71
2024/02/26 05:23:32;;;;;;;;;;;14.90;65.20;;;;;;5055190;28;19919;-70
2024/02/26 05:25:57;;;;;;;;;;;14.90;64.90;;;;;;5055035;28;19908;-71
2024/02/26 05:28:23;;;;;;;;;;;14.50;64.90;;;;;;5054784;28;19947;-70
2024/02/26 05:30:48;;;;;;;;;;;14.90;65.90;;;;;;5054849;28;19909;-70
2024/02/26 05:33:14;;;;;;;;;;;14.90;65.30;;;;;;5055213;28;20219;-70
2024/02/26 05:35:40;;;;;;;;;;;15.00;65.20;;;;;;5055588;28;19995;-74
2024/02/26 05:38:06;;;;;;;;;;;14.90;65.00;;;;;;5054813;28;19909;-74
2024/02/26 05:40:31;;;;;;;;;;;14.90;65.40;;;;;;5036853;28;19913;-74
2024/02/26 05:42:57;;;;;;;;;;;14.90;65.20;;;;;;5054743;28;19909;-74
2024/02/26 05:45:22;;;;;;;;;;;14.80;65.00;;;;;;5054666;28;19909;-74
2024/02/26 05:47:49;;;;;;;;;;;14.90;65.00;;;;;;5054668;28;20004;-74
2024/02/26 05:50:15;;;;;;;;;;;14.80;65.10;;;;;;5054562;28;20429;-74
2024/02/26 05:52:40;;;;;;;;;;;14.80;64.80;;;;;;5054575;28;19913;-74
2024/02/26 05:55:06;;;;;;;;;;;14.80;64.90;;;;;;5036550;28;19909;-74
2024/02/26 05:57:33;;;;;;;;;;;14.80;63.90;;;;;;5054778;28;20263;-74
2024/02/26 06:00:03;;;;;;;;;;;14.90;65.00;;;;;;5054402;28;19915;-74
2024/02/26 06:02:29;;;;;;;;;;;14.80;64.60;;;;;;5054433;28;20320;-74
2024/02/26 06:04:54;;;;;;;;;;;14.90;65.30;;;;;;5055081;28;20054;-74
2024/02/26 06:07:22;;;;;;;;;;;14.70;62.10;;;;;;5053225;28;20315;-74
2024/02/26 06:09:48;;;;;;;;;;;14.90;65.00;;;;;;5054105;28;19943;-75
2024/02/26 06:12:13;;;;;;;;;;;14.80;65.60;;;;;;5054093;28;19915;-74
2024/02/26 06:14:39;;;;;;;;;;;14.80;65.00;;;;;;5058443;28;19952;-74
2024/02/26 06:17:04;;;;;;;;;;;14.80;64.50;;;;;;5057404;28;19996;-74
2024/02/26 06:19:30;;;;;;;;;;;14.70;64.60;;;;;;5053976;28;19995;-74
2024/02/26 06:21:55;;;;;;;;;;;14.90;64.90;;;;;;5053831;28;19917;-74
2024/02/26 06:24:22;;;;;;;;;;;14.70;64.40;;;;;;5053877;28;19909;-78
2024/02/26 06:26:47;;;;;;;;;;;14.70;64.80;;;;;;5053849;28;19909;-72
2024/02/26 06:29:13;;;;;;;;;;;14.70;64.90;;;;;;5060957;28;19996;-75
2024/02/26 06:31:39;;;;;;;;;;;14.70;64.70;;;;;;5054281;28;19908;-76
2024/02/26 06:34:04;;;;;;;;;;;14.60;64.60;;;;;;5053652;28;19948;-76
2024/02/26 06:36:31;;;;;;;;;;;14.60;64.90;;;;;;5053672;28;19916;-76
2024/02/26 06:38:57;;;;;;;;;;;14.60;64.90;;;;;;5053507;28;19996;-76
2024/02/26 06:41:27;;;;;;;;;;;14.60;64.80;;;;;;5053443;28;20486;-76
2024/02/26 06:43:53;;;;;;;;;;;14.60;65.00;;;;;;5053888;28;20011;-76
2024/02/26 06:46:19;;;;;;;;;;;14.60;65.50;;;;;;5053449;28;19952;-71
2024/02/26 06:48:44;;;;;;;;;;;14.60;65.00;;;;;;5053298;28;19916;-72
2024/02/26 06:51:10;;;;;;;;;;;14.60;64.40;;;;;;5053357;28;19909;-73
2024/02/26 06:53:35;;;;;;;;;;;14.60;65.30;;;;;;5053365;28;20406;-73
2024/02/26 06:56:00;;;;;;;;;;;14.60;65.20;;;;;;5053244;28;19978;-73
2024/02/26 06:58:26;;;;;;;;;;;14.50;64.90;;;;;;5053212;28;19951;-71
2024/02/26 07:00:52;;;;;;;;;;;14.60;65.30;;;;;;5052583;28;19921;-71
2024/02/26 07:03:17;;;;;;;;;;;14.60;64.80;;;;;;5053025;28;19912;-71
2024/02/26 07:05:45;;;;;;;;;;;14.60;65.30;;;;;;5053070;28;19909;-71
2024/02/26 07:08:10;;;;;;;;;;;14.60;65.30;;;;;;5052825;28;20317;-71
2024/02/26 07:10:36;;;;;;;;;;;14.60;65.20;;;;;;5052763;28;20023;-71
2024/02/26 07:13:02;;;;;;;;;;;14.60;65.10;;;;;;5052897;28;19916;-71
2024/02/26 07:15:28;;;;;;;;;;;14.50;65.00;;;;;;5052873;28;20289;-71
2024/02/26 07:17:53;;;;;;;;;;;14.60;65.20;;;;;;5052868;28;19909;-71
2024/02/26 07:20:19;;;;;;;;;;;15.00;65.30;;;;;;5034892;28;19915;-71
2024/02/26 07:22:44;;;;;;;;;;;14.50;65.30;;;;;;5052692;28;19917;-71
2024/02/26 07:25:13;;;;;;;;;;;14.50;65.20;;;;;;5052917;28;19915;-71
2024/02/26 07:27:39;;;;;;;;;;;14.60;65.60;;;;;;5051915;28;19955;-70
2024/02/26 07:30:06;;;;;;;;;;;14.50;65.70;;;;;;5053123;28;19912;-70
2024/02/26 07:32:31;;;;;;;;;;;14.60;64.50;;;;;;5052483;28;19909;-70
2024/02/26 07:34:57;;;;;;;;;;;14.60;65.40;;;;;;5052381;28;19931;-69
2024/02/26 07:37:22;;;;;;;;;;;14.70;65.60;;;;;;5052266;28;20263;-69
2024/02/26 07:39:47;;;;;;;;;;;14.70;65.50;;;;;;5052422;28;19909;-71
2024/02/26 07:42:13;;;;;;;;;;;14.60;65.40;;;;;;5052336;28;19951;-70
2024/02/26 07:44:42;;;;;;;;;;;14.70;65.20;;;;;;5052383;28;20393;-70
2024/02/26 07:47:09;;;;;;;;;;;14.60;65.10;;;;;;5052487;28;20344;-70
2024/02/26 07:49:34;;;;;;;;;;;14.70;65.80;;;;;;5052155;28;20367;-71
2024/02/26 07:52:00;;;;;;;;;;;14.70;65.30;;;;;;5052246;28;19916;-72
2024/02/26 07:54:25;;;;;;;;;;;14.70;65.10;;;;;;5052168;28;19913;-72
2024/02/26 07:56:51;;;;;;;;;;;14.70;64.70;;;;;;5052200;28;19912;-72
2024/02/26 07:59:17;;;;;;;;;;;14.70;65.10;;;;;;5051955;28;19909;-71
2024/02/26 08:01:43;;;;;;;;;;;14.70;64.90;;;;;;5052141;28;19924;-70
2024/02/26 08:04:09;;;;;;;;;;;14.70;65.70;;;;;;5052069;28;20355;-71
2024/02/26 08:06:35;;;;;;;;;;;14.60;65.30;;;;;;5052120;28;19908;-71
2024/02/26 08:09:03;;;;;;;;;;;14.80;65.50;;;;;;5052352;28;19913;-72
2024/02/26 08:11:29;;;;;;;;;;;14.70;65.60;;;;;;5051897;28;19909;-75
2024/02/26 08:13:54;;;;;;;;;;;14.70;64.90;;;;;;5052346;28;20004;-73
2024/02/26 08:16:20;;;;;;;;;;;14.70;65.50;;;;;;5052239;28;19951;-73
2024/02/26 08:18:46;;;;;;;;;;;14.70;65.20;;;;;;5052063;28;20359;-73
2024/02/26 08:21:11;;;;;;;;;;;14.70;65.30;;;;;;5051945;28;19974;-73
2024/02/26 08:23:37;;;;;;;;;;;14.70;65.60;;;;;;5051885;28;20279;-73
2024/02/26 08:26:06;;;;;;;;;;;14.70;65.40;;;;;;5052410;28;20358;-73
2024/02/26 08:28:32;;;;;;;;;;;14.70;64.80;;;;;;5051776;28;19928;-73
2024/02/26 08:30:58;;;;;;;;;;;14.70;65.10;;;;;;5051837;28;19909;-73
2024/02/26 08:33:23;;;;;;;;;;;14.70;65.40;;;;;;5051719;28;19915;-73
2024/02/26 08:35:49;;;;;;;;;;;15.00;65.70;;;;;;5051597;28;19999;-74
2024/02/26 08:38:14;;;;;;;;;;;14.70;65.50;;;;;;5051814;28;19936;-73
2024/02/26 08:40:40;;;;;;;;;;;14.70;65.40;;;;;;5055027;28;20389;-72
2024/02/26 08:43:05;;;;;;;;;;;14.70;65.30;;;;;;5037664;28;19909;-72
2024/02/26 08:45:31;;;;;;;;;;;14.70;65.70;;;;;;5055422;28;19909;-70
2024/02/26 08:47:58;;;;;;;;;;;14.90;65.50;;;;;;5055404;28;19923;-71
2024/02/26 08:50:23;;;;;;;;;;;15.00;65.20;;;;;;5055301;28;20389;-71
2024/02/26 08:52:50;;;;;;;;;;;15.00;65.70;;;;;;5055415;28;19913;-72
2024/02/26 08:55:16;;;;;;;;;;;14.70;65.00;;;;;;5055328;28;20346;-76
2024/02/26 08:57:42;;;;;;;;;;;14.80;65.40;;;;;;5055227;28;20361;-73
2024/02/26 09:00:08;;;;;;;;;;;14.80;65.10;;;;;;5058245;28;19917;-72
2024/02/26 09:02:33;;;;;;;;;;;14.70;64.90;;;;;;5055145;28;19917;-73
2024/02/26 09:04:58;;;;;;;;;;;14.60;65.10;;;;;;5055034;28;19908;-73
2024/02/26 09:07:24;;;;;;;;;;;14.70;65.50;;;;;;5054929;28;20007;-73
2024/02/26 09:09:49;;;;;;;;;;;14.70;65.40;;;;;;5054949;28;19917;-73
2024/02/26 09:12:15;;;;;;;;;;;14.70;65.60;;;;;;5054952;28;19909;-73
2024/02/26 09:14:40;;;;;;;;;;;14.60;65.20;;;;;;5055435;28;19909;-73
2024/02/26 09:17:07;;;;;;;;;;;14.60;65.20;;;;;;5054878;28;19962;-73
2024/02/26 09:19:32;;;;;;;;;;;14.70;65.40;;;;;;5054757;28;19955;-73
2024/02/26 09:21:58;;;;;;;;;;;14.70;65.30;;;;;;5054621;28;19979;-73
2024/02/26 09:24:24;;;;;;;;;;;14.70;65.00;;;;;;5054595;28;19908;-73
2024/02/26 09:26:50;;;;;;;;;;;14.80;65.30;;;;;;5054554;28;19951;-73
2024/02/26 09:29:15;;;;;;;;;;;14.70;65.20;;;;;;5054737;28;19908;-73
2024/02/26 09:31:41;;;;;;;;;;;14.70;65.30;;;;;;5054348;28;20011;-72
2024/02/26 09:34:07;;;;;;;;;;;14.70;65.30;;;;;;5054376;28;19909;-72
2024/02/26 09:36:33;;;;;;;;;;;14.60;65.20;;;;;;5054333;28;19949;-72
2024/02/26 09:38:58;;;;;;;;;;;14.70;65.90;;;;;;5054457;28;19913;-72
2024/02/26 09:41:26;;;;;;;;;;;14.70;65.40;;;;;;5054805;28;20382;-72
2024/02/26 09:43:55;;;;;;;;;;;14.70;65.60;;;;;;5054341;28;19966;-72
2024/02/26 09:46:21;;;;;;;;;;;14.60;65.60;;;;;;5054323;28;20019;-72
2024/02/26 09:48:47;;;;;;;;;;;14.60;65.70;;;;;;5054113;28;19962;-72
2024/02/26 09:51:14;;;;;;;;;;;14.80;66.30;;;;;;5053414;28;19913;-72
2024/02/26 09:53:42;;;;;;;;;;;14.60;65.70;;;;;;5054174;28;19909;-72
2024/02/26 09:56:08;;;;;;;;;;;14.70;65.70;;;;;;5053975;28;19908;-72
2024/02/26 09:58:34;;;;;;;;;;;14.70;65.70;;;;;;5053849;28;20401;-72
2024/02/26 10:01:02;;;;;;;;;;;15.00;65.70;;;;;;5053664;28;19916;-72
2024/02/26 10:03:34;;;;;;;;;;;14.60;65.20;;;;;;5053807;28;19936;-75
2024/02/26 10:06:02;;;;;;;;;;;14.70;61.00;;;;;;5053782;28;20334;-73
2024/02/26 10:08:28;;;;;;;;;;;14.70;65.60;;;;;;5053774;28;19983;-73
2024/02/26 10:10:54;;;;;;;;;;;14.70;65.70;;;;;;5054221;28;19909;-72
2024/02/26 10:13:20;;;;;;;;;;;14.60;65.70;;;;;;5053802;28;19909;-73
2024/02/26 10:15:46;;;;;;;;;;;14.70;65.60;;;;;;5053707;28;20358;-72
2024/02/26 10:18:11;;;;;;;;;;;14.70;65.70;;;;;;5053717;28;19992;-72
2024/02/26 10:20:37;;;;;;;;;;;14.70;65.80;;;;;;5053626;28;19916;-72
2024/02/26 10:23:03;;;;;;;;;;;14.70;65.60;;;;;;5053435;28;19920;-74
2024/02/26 10:25:31;;;;;;;;;;;14.70;65.80;;;;;;5053443;28;19909;-74
2024/02/26 10:27:59;;;;;;;;;;;14.70;65.90;;;;;;5053307;28;19909;-74
2024/02/26 10:30:26;;;;;;;;;;;14.70;65.70;;;;;;5053295;28;19956;-74
2024/02/26 10:32:51;;;;;;;;;;;14.70;65.60;;;;;;5053498;28;20338;-74
2024/02/26 10:35:18;;;;;;;;;;;14.50;65.20;;;;;;5053452;28;19908;-74
2024/02/26 10:37:43;;;;;;;;;;;14.80;66.00;;;;;;5053092;28;20302;-74
2024/02/26 10:40:10;;;;;;;;;;;14.70;66.00;;;;;;5053474;28;19915;-74
2024/02/26 10:42:35;;;;;;;;;;;14.70;65.30;;;;;;5053099;28;19964;-74
2024/02/26 10:45:02;;;;;;;;;;;14.70;65.30;;;;;;5052951;28;19954;-74
2024/02/26 10:47:28;;;;;;;;;;;14.70;65.50;;;;;;5052887;28;20375;-74
2024/02/26 10:49:54;;;;;;;;;;;14.60;66.00;;;;;;5053099;28;19999;-74
2024/02/26 10:52:20;;;;;;;;;;;14.70;65.80;;;;;;5053085;28;19951;-74
2024/02/26 10:54:47;;;;;;;;;;;14.70;66.00;;;;;;5035056;28;19908;-74
2024/02/26 10:57:13;;;;;;;;;;;14.70;66.20;;;;;;5052813;28;19913;-74
2024/02/26 10:59:39;;;;;;;;;;;14.50;65.50;;;;;;5053174;28;19909;-74
2024/02/26 11:02:06;;;;;;;;;;;14.70;65.50;;;;;;5052702;28;19971;-74
2024/02/26 11:04:32;;;;;;;;;;;14.80;66.00;;;;;;5034978;28;19912;-75
2024/02/26 11:06:58;;;;;;;;;;;14.70;65.60;;;;;;5053085;28;19921;-75
2024/02/26 11:09:25;;;;;;;;;;;14.70;65.80;;;;;;5053064;28;19909;-75
2024/02/26 11:11:54;;;;;;;;;;;14.70;66.10;;;;;;5052740;28;19909;-75
2024/02/26 11:14:20;;;;;;;;;;;14.70;66.10;;;;;;5052787;28;19908;-76
2024/02/26 11:16:46;;;;;;;;;;;14.70;65.80;;;;;;5052675;28;20445;-76
2024/02/26 11:19:13;;;;;;;;;;;14.80;66.00;;;;;;5052672;28;19939;-76
2024/02/26 11:21:41;;;;;;;;;;;14.70;65.80;;;;;;5052495;28;20000;-76
2024/02/26 11:24:18;;;;;;;;;;;14.70;66.00;;;;;;5034709;28;20394;-76
2024/02/26 11:26:55;;;;;;;;;;;14.70;65.00;;;;;;5052729;28;19952;-84
2024/02/26 11:29:22;;;;;;;;;;;14.80;61.10;;;;;;5059429;28;20353;-76
2024/02/26 11:31:48;;;;;;;;;;;14.80;65.50;;;;;;5052601;28;19909;-76
2024/02/26 11:34:13;;;;;;;;;;;14.80;65.40;;;;;;5052552;28;20420;-76
2024/02/26 11:36:39;;;;;;;;;;;14.70;65.60;;;;;;5053307;28;19913;-77
2024/02/26 11:39:05;;;;;;;;;;;14.70;65.50;;;;;;5052568;28;19908;-75
2024/02/26 11:41:31;;;;;;;;;;;14.70;65.20;;;;;;5052627;28;19943;-75
2024/02/26 11:44:01;;;;;;;;;;;14.70;65.30;;;;;;5052549;28;19909;-77
2024/02/26 11:46:30;;;;;;;;;;;14.70;60.60;;;;;;5052678;28;19909;-75
2024/02/26 11:49:03;;;;;;;;;;;14.70;60.80;;;;;;5052560;28;19932;-77
2024/02/26 11:51:33;;;;;;;;;;;14.70;60.80;;;;;;5052374;28;19915;-77
2024/02/26 11:53:59;;;;;;;;;;;14.70;65.50;;;;;;5059046;28;20417;-75
2024/02/26 11:56:29;;;;;;;;;;;14.70;65.30;;;;;;5052299;28;19909;-74
2024/02/26 11:58:58;;;;;;;;;;;14.70;65.70;;;;;;5058918;28;19909;-76
2024/02/26 12:01:43;;;;;;;;;;;14.70;65.40;;;;;;5049968;28;19940;-75
2024/02/26 12:04:22;;;;;;;;;;;14.60;61.00;;;;;;5052583;28;19909;-76
2024/02/26 12:06:52;;;;;;;;;;;14.70;61.00;;;;;;5051951;28;20204;-77
2024/02/26 12:09:32;;;;;;;;;;;14.70;61.20;;;;;;5052038;28;19912;-76
2024/02/26 12:11:58;;;;;;;;;;;14.60;61.00;;;;;;5052022;28;20551;-75
2024/02/26 12:14:27;;;;;;;;;;;14.60;65.70;;;;;;5053428;28;19909;-75
2024/02/26 12:16:53;;;;;;;;;;;14.70;61.20;;;;;;5056139;28;20107;-72
2024/02/26 12:19:18;;;;;;;;;;;14.70;65.70;;;;;;5056191;28;19952;-71
2024/02/26 12:21:44;;;;;;;;;;;14.60;65.60;;;;;;5056033;28;19924;-71
2024/02/26 12:24:19;;;;;;;;;;;14.70;65.80;;;;;;5056224;28;20294;-71
2024/02/26 12:26:45;;;;;;;;;;;14.80;64.90;;;;;;5056562;28;19913;-71
2024/02/26 12:29:11;;;;;;;;;;;14.70;65.80;;;;;;5056067;28;20021;-70
2024/02/26 12:31:37;;;;;;;;;;;14.80;65.80;;;;;;5055977;28;19941;-71
2024/02/26 12:34:07;;;;;;;;;;;14.70;65.90;;;;;;5056434;28;20015;-71
2024/02/26 12:36:34;;;;;;;;;;;14.60;61.10;;;;;;5056095;28;19917;-70
2024/02/26 12:39:00;;;;;;;;;;;14.60;65.80;;;;;;5055820;28;19912;-70
2024/02/26 12:41:26;;;;;;;;;;;14.40;65.80;;;;;;5055681;28;19924;-70
2024/02/26 12:43:53;;;;;;;;;;;14.40;65.70;;;;;;5055813;28;19909;-71
2024/02/26 12:46:18;;;;;;;;;;;14.70;65.60;;;;;;5055722;28;20256;-70
2024/02/26 12:48:46;;;;;;;;;;;14.70;65.60;;;;;;5055642;28;19909;-70
2024/02/26 12:51:14;;;;;;;;;;;14.70;63.30;;;;;;5055504;28;19913;-71
2024/02/26 12:53:39;;;;;;;;;;;14.60;66.00;;;;;;5055569;28;19959;-70
2024/02/26 12:56:08;;;;;;;;;;;14.70;65.80;;;;;;5055820;28;19909;-70
2024/02/26 12:58:35;;;;;;;;;;;14.60;61.10;;;;;;5055369;28;20343;-70
2024/02/26 13:01:01;;;;;;;;;;;15.00;66.20;;;;;;5055315;28;19921;-71
2024/02/26 13:03:27;;;;;;;;;;;14.60;64.60;;;;;;5055293;28;19971;-71
2024/02/26 13:05:53;;;;;;;;;;;14.60;66.00;;;;;;5055332;28;19971;-71
2024/02/26 13:08:19;;;;;;;;;;;14.70;65.80;;;;;;5055246;28;19967;-70
2024/02/26 13:10:48;;;;;;;;;;;14.60;66.40;;;;;;5055263;28;19908;-71
2024/02/26 13:13:17;;;;;;;;;;;14.70;61.40;;;;;;5055312;28;19952;-70
2024/02/26 13:15:43;;;;;;;;;;;14.60;61.30;;;;;;5055213;28;19949;-71
2024/02/26 13:18:09;;;;;;;;;;;14.70;66.00;;;;;;5055135;28;19909;-70
2024/02/26 13:20:36;;;;;;;;;;;14.70;66.10;;;;;;5055705;28;19909;-70
2024/02/26 13:23:02;;;;;;;;;;;14.60;66.00;;;;;;5054980;28;20283;-70
2024/02/26 13:25:28;;;;;;;;;;;14.70;65.80;;;;;;5053787;28;20042;-71
2024/02/26 13:28:04;;;;;;;;;;;14.60;65.90;;;;;;5054798;28;19921;-70
2024/02/26 13:30:29;;;;;;;;;;;14.60;66.00;;;;;;5055206;28;19970;-71
2024/02/26 13:32:55;;;;;;;;;;;14.70;66.20;;;;;;5054868;28;20375;-74
2024/02/26 13:35:20;;;;;;;;;;;14.60;65.80;;;;;;5054774;28;20008;-74
2024/02/26 13:37:46;;;;;;;;;;;14.60;65.60;;;;;;5054693;28;19967;-74
2024/02/26 13:40:11;;;;;;;;;;;14.60;66.40;;;;;;5054632;28;19963;-74
2024/02/26 13:42:37;;;;;;;;;;;14.60;65.50;;;;;;5054418;28;19917;-74
2024/02/26 13:45:06;;;;;;;;;;;14.70;66.40;;;;;;5054629;28;19913;-74
2024/02/26 13:47:32;;;;;;;;;;;14.70;65.70;;;;;;5054980;28;20414;-73
2024/02/26 13:49:57;;;;;;;;;;;14.60;66.40;;;;;;5036586;28;20008;-74
2024/02/26 13:52:23;;;;;;;;;;;14.60;66.20;;;;;;5054481;28;19908;-73
2024/02/26 13:54:49;;;;;;;;;;;15.20;66.90;;;;;;5054402;28;19909;-73
2024/02/26 13:57:14;;;;;;;;;;;14.70;66.40;;;;;;5054393;28;19909;-73
2024/02/26 13:59:42;;;;;;;;;;;14.70;66.50;;;;;;5054429;28;19955;-74
2024/02/26 14:02:11;;;;;;;;;;;14.60;66.00;;;;;;5054174;28;19917;-73
2024/02/26 14:04:36;;;;;;;;;;;14.60;66.30;;;;;;5054332;28;19916;-72
2024/02/26 14:07:03;;;;;;;;;;;14.60;66.50;;;;;;5054037;28;20348;-72
2024/02/26 14:09:28;;;;;;;;;;;14.60;66.00;;;;;;5054275;28;19915;-75
2024/02/26 14:11:54;;;;;;;;;;;14.60;66.60;;;;;;5054069;28;19999;-75
2024/02/26 14:14:19;;;;;;;;;;;14.60;66.90;;;;;;5054203;28;19909;-74
2024/02/26 14:16:45;;;;;;;;;;;14.60;66.80;;;;;;5054600;28;19910;-74